Time;durP1;ratioP1;P1;durP2;ratioP2;P2;SDS_P1;SDS_P2;PMS_P1;PMS_P2;Temp;Humidity;BMP_temperature;BMP_pressure;BME280_temperature;BME280_humidity;BME280_pressure;Samples;Min_cycle;Max_cycle;Signal;HPM_P1;HPM_P2
2022/04/15 00:02:09;;;;;;;21.70;12.27;;;;;;;;;;5064431;28;20227;-78
2022/04/15 00:04:37;;;;;;;21.93;13.37;;;;;;;;;;5064374;28;20205;-78
2022/04/15 00:07:05;;;;;;;21.93;13.40;;;;;;;;;;5058194;28;20687;-78
2022/04/15 00:09:35;;;;;;;20.80;13.07;;;;;;;;;;5061310;28;20238;-79
2022/04/15 00:12:06;;;;;;;32.10;14.50;;;;;;;;;;5062485;28;20215;-79
2022/04/15 00:14:34;;;;;;;22.23;13.07;;;;;;;;;;5059445;28;20202;-78
2022/04/15 00:17:01;;;;;;;26.43;13.70;;;;;;;;;;5066724;28;20214;-77
2022/04/15 00:19:28;;;;;;;24.67;14.00;;;;;;;;;;5067959;28;20633;-78
2022/04/15 00:21:55;;;;;;;26.47;13.30;;;;;;;;;;5066964;28;20300;-78
2022/04/15 00:24:23;;;;;;;24.60;13.10;;;;;;;;;;5065288;28;20202;-79
2022/04/15 00:26:51;;;;;;;24.03;13.63;;;;;;;;;;5062466;28;20215;-78
2022/04/15 00:29:18;;;;;;;29.23;13.80;;;;;;;;;;5065587;28;20258;-78
2022/04/15 00:31:46;;;;;;;27.33;14.37;;;;;;;;;;5062835;28;20229;-78
2022/04/15 00:34:13;;;;;;;24.77;13.50;;;;;;;;;;5064116;28;20786;-79
2022/04/15 00:36:40;;;;;;;26.20;14.20;;;;;;;;;;5065959;28;20260;-79
2022/04/15 00:39:08;;;;;;;26.10;13.93;;;;;;;;;;5068167;28;20207;-78
2022/04/15 00:41:35;;;;;;;25.47;13.37;;;;;;;;;;5066720;28;20233;-77
2022/04/15 00:44:04;;;;;;;21.07;13.20;;;;;;;;;;5066184;28;20207;-77
2022/04/15 00:46:31;;;;;;;33.50;14.10;;;;;;;;;;5069597;28;20289;-78
2022/04/15 00:48:58;;;;;;;23.40;13.83;;;;;;;;;;5069837;28;20248;-78
2022/04/15 00:51:25;;;;;;;23.13;13.20;;;;;;;;;;5071724;28;20217;-79
2022/04/15 00:53:54;;;;;;;26.13;13.67;;;;;;;;;;5067910;28;20253;-79
2022/04/15 00:56:22;;;;;;;23.00;13.33;;;;;;;;;;5072673;28;20262;-78
2022/04/15 00:58:50;;;;;;;30.70;14.17;;;;;;;;;;5066785;28;20203;-78
2022/04/15 01:01:19;;;;;;;24.40;13.87;;;;;;;;;;5065564;28;20233;-79
2022/04/15 01:03:47;;;;;;;27.17;13.67;;;;;;;;;;5065473;28;20227;-78
2022/04/15 01:06:15;;;;;;;28.17;14.17;;;;;;;;;;5064325;28;20237;-78
2022/04/15 01:08:43;;;;;;;23.27;13.50;;;;;;;;;;5068983;28;20199;-78
2022/04/15 01:11:12;;;;;;;23.70;13.50;;;;;;;;;;5071797;28;20322;-77
2022/04/15 01:13:40;;;;;;;27.93;14.87;;;;;;;;;;5064840;28;20301;-77
2022/04/15 01:16:08;;;;;;;25.30;13.77;;;;;;;;;;5062000;28;20208;-78
2022/04/15 01:18:36;;;;;;;23.37;13.87;;;;;;;;;;5067396;28;20247;-77
2022/04/15 01:21:04;;;;;;;28.77;14.00;;;;;;;;;;5064106;28;20234;-78
2022/04/15 01:23:33;;;;;;;28.83;14.07;;;;;;;;;;5067777;28;20228;-78
2022/04/15 01:26:00;;;;;;;24.90;14.13;;;;;;;;;;5061880;28;20222;-78
2022/04/15 01:31:31;;;;;;;22.83;13.27;;;;;;;;;;5065593;28;20232;-78
2022/04/15 01:34:10;;;;;;;25.43;13.07;;;;;;;;;;5072127;28;20220;-78
2022/04/15 01:36:38;;;;;;;23.70;13.83;;;;;;;;;;5058983;28;20207;-79
2022/04/15 01:39:07;;;;;;;26.13;13.53;;;;;;;;;;5065883;28;20249;-78
2022/04/15 01:41:39;;;;;;;25.93;13.83;;;;;;;;;;5064238;28;20257;-78
2022/04/15 01:44:07;;;;;;;23.33;13.73;;;;;;;;;;5070998;28;20214;-77
2022/04/15 01:46:35;;;;;;;23.63;13.00;;;;;;;;;;5074695;28;20210;-78
2022/04/15 01:49:02;;;;;;;29.97;14.00;;;;;;;;;;5062423;28;20214;-78
2022/04/15 01:51:29;;;;;;;24.93;14.53;;;;;;;;;;5074010;28;20230;-78
2022/04/15 01:53:56;;;;;;;25.47;13.37;;;;;;;;;;5070870;28;20230;-78
2022/04/15 01:56:25;;;;;;;30.20;14.00;;;;;;;;;;5064460;28;20270;-79
2022/04/15 01:58:52;;;;;;;24.73;13.37;;;;;;;;;;5060754;28;20627;-79
2022/04/15 02:01:19;;;;;;;24.43;13.93;;;;;;;;;;5058307;28;20251;-78
2022/04/15 02:03:46;;;;;;;24.53;14.10;;;;;;;;;;5060169;28;20294;-78
2022/04/15 02:06:14;;;;;;;25.77;14.13;;;;;;;;;;5060008;28;20280;-78
2022/04/15 02:08:41;;;;;;;27.10;13.63;;;;;;;;;;5059380;28;20210;-79
2022/04/15 02:11:08;;;;;;;22.13;13.43;;;;;;;;;;5061870;28;20715;-78
2022/04/15 02:13:37;;;;;;;21.17;12.60;;;;;;;;;;5066539;28;20205;-78
2022/04/15 02:16:04;;;;;;;25.47;14.10;;;;;;;;;;5064961;28;20543;-81
2022/04/15 02:18:31;;;;;;;22.73;12.87;;;;;;;;;;5065232;28;20206;-80
2022/04/15 02:20:59;;;;;;;25.80;13.40;;;;;;;;;;5074599;28;20275;-79
2022/04/15 02:23:26;;;;;;;23.07;13.10;;;;;;;;;;5066261;28;20218;-79
2022/04/15 02:25:53;;;;;;;30.93;13.33;;;;;;;;;;5069397;28;20270;-78
2022/04/15 02:28:20;;;;;;;25.47;12.80;;;;;;;;;;5067629;28;20576;-80
2022/04/15 02:30:49;;;;;;;26.63;14.73;;;;;;;;;;5065336;28;20231;-79
2022/04/15 02:33:16;;;;;;;23.47;13.37;;;;;;;;;;5068134;28;20202;-79
2022/04/15 02:35:44;;;;;;;30.17;14.20;;;;;;;;;;5067448;28;20616;-79
2022/04/15 02:38:11;;;;;;;23.87;13.43;;;;;;;;;;5063578;28;20214;-79
2022/04/15 02:40:38;;;;;;;23.87;13.53;;;;;;;;;;5062136;28;20301;-79
2022/04/15 02:43:06;;;;;;;28.67;14.70;;;;;;;;;;5062087;28;20223;-78
2022/04/15 02:45:33;;;;;;;28.40;14.17;;;;;;;;;;5068018;28;20289;-79
2022/04/15 02:48:02;;;;;;;22.47;13.53;;;;;;;;;;5061337;28;20261;-79
2022/04/15 02:50:29;;;;;;;26.40;13.47;;;;;;;;;;5061983;28;20258;-79
2022/04/15 02:52:58;;;;;;;23.50;13.13;;;;;;;;;;5062910;28;20285;-79
2022/04/15 02:55:26;;;;;;;25.33;14.03;;;;;;;;;;5063362;28;20229;-79
2022/04/15 02:57:53;;;;;;;20.60;12.80;;;;;;;;;;5063948;28;20256;-79
2022/04/15 03:00:20;;;;;;;23.23;12.27;;;;;;;;;;5068417;28;20244;-79
2022/04/15 03:02:48;;;;;;;21.23;12.10;;;;;;;;;;5068014;28;20258;-80
2022/04/15 03:05:16;;;;;;;25.80;12.77;;;;;;;;;;5073082;28;20229;-77
2022/04/15 03:07:44;;;;;;;25.77;11.90;;;;;;;;;;5065827;28;20234;-79
2022/04/15 03:10:11;;;;;;;21.13;11.87;;;;;;;;;;5063657;28;20257;-79
2022/04/15 03:12:58;;;;;;;23.27;11.60;;;;;;;;;;5085155;22;20234;-82
2022/04/15 03:15:25;;;;;;;21.57;10.53;;;;;;;;;;5068017;28;20265;-82
2022/04/15 03:17:54;;;;;;;20.23;11.03;;;;;;;;;;5061542;28;20202;-81
2022/04/15 03:20:23;;;;;;;19.97;10.97;;;;;;;;;;5064525;28;20307;-81
2022/04/15 03:22:50;;;;;;;20.23;11.13;;;;;;;;;;5062540;28;20307;-82
2022/04/15 03:25:26;;;;;;;21.57;10.53;;;;;;;;;;5053709;28;20637;-82
2022/04/15 03:27:53;;;;;;;19.93;11.07;;;;;;;;;;5053276;28;20262;-82
2022/04/15 03:30:21;;;;;;;20.03;10.60;;;;;;;;;;5056419;28;20202;-82
2022/04/15 03:32:55;;;;;;;20.17;11.50;;;;;;;;;;5051536;28;20261;-82
2022/04/15 03:35:23;;;;;;;23.70;11.30;;;;;;;;;;5053415;28;20207;-82
2022/04/15 03:37:51;;;;;;;21.47;11.07;;;;;;;;;;5054270;28;20207;-83
2022/04/15 03:43:01;;;;;;;17.73;9.80;;;;;;;;;;5054115;28;20223;-82
2022/04/15 03:45:30;;;;;;;19.13;9.83;;;;;;;;;;5050449;28;20207;-82
2022/04/15 03:48:03;;;;;;;18.10;10.67;;;;;;;;;;5051482;28;20726;-82
2022/04/15 03:53:52;;;;;;;19.17;10.67;;;;;;;;;;5048488;28;20815;-83
2022/04/15 03:56:19;;;;;;;22.70;10.90;;;;;;;;;;5060870;28;20243;-82
2022/04/15 03:58:49;;;;;;;21.93;10.87;;;;;;;;;;5064102;28;20286;-82
2022/04/15 04:01:17;;;;;;;18.77;10.30;;;;;;;;;;5067467;28;20228;-82
2022/04/15 04:03:44;;;;;;;19.40;10.50;;;;;;;;;;5064094;28;20281;-82
2022/04/15 04:06:12;;;;;;;17.90;10.73;;;;;;;;;;5057341;28;20576;-80
2022/04/15 04:08:40;;;;;;;18.87;11.17;;;;;;;;;;5055417;28;20206;-81
2022/04/15 04:11:09;;;;;;;20.37;11.40;;;;;;;;;;5059069;28;20202;-80
2022/04/15 04:13:36;;;;;;;18.03;10.70;;;;;;;;;;5058308;28;20234;-79
2022/04/15 04:16:03;;;;;;;18.73;10.60;;;;;;;;;;5057401;28;20389;-81
2022/04/15 04:18:31;;;;;;;22.87;10.57;;;;;;;;;;5061846;28;20199;-81
2022/04/15 04:20:58;;;;;;;24.40;11.50;;;;;;;;;;5060502;28;20299;-81
2022/04/15 04:23:26;;;;;;;19.33;10.87;;;;;;;;;;5065098;28;20256;-81
2022/04/15 04:25:54;;;;;;;25.93;10.80;;;;;;;;;;5052041;28;20231;-81
2022/04/15 04:28:21;;;;;;;19.00;11.33;;;;;;;;;;5053553;28;20279;-81
2022/04/15 04:30:55;;;;;;;22.60;10.93;;;;;;;;;;5057777;28;20202;-81
2022/04/15 04:33:38;;;;;;;21.30;9.67;;;;;;;;;;5077346;28;20234;-82
2022/04/15 04:36:13;;;;;;;20.43;11.33;;;;;;;;;;5080137;28;20589;-82
2022/04/15 04:38:42;;;;;;;22.73;10.87;;;;;;;;;;5059970;28;20207;-81
2022/04/15 04:41:09;;;;;;;17.90;10.40;;;;;;;;;;5059647;28;20233;-81
2022/04/15 04:43:40;;;;;;;20.07;11.03;;;;;;;;;;5056206;28;20264;-81
2022/04/15 04:46:33;;;;;;;19.23;11.23;;;;;;;;;;5058640;28;20236;-82
2022/04/15 04:49:05;;;;;;;21.63;11.60;;;;;;;;;;5058457;28;20321;-82
2022/04/15 04:54:25;;;;;;;22.47;11.80;;;;;;;;;;5060193;28;20213;-81
2022/04/15 04:56:52;;;;;;;23.60;11.40;;;;;;;;;;5055393;28;20643;-82
2022/04/15 04:59:22;;;;;;;22.63;12.23;;;;;;;;;;5059149;28;20637;-82
2022/04/15 05:01:50;;;;;;;25.43;11.23;;;;;;;;;;5059025;28;20264;-82
2022/04/15 05:07:01;;;;;;;19.23;10.53;;;;;;;;;;5057547;28;20234;-82
2022/04/15 05:09:52;;;;;;;23.07;11.53;;;;;;;;;;5056667;28;20214;-82
2022/04/15 05:12:20;;;;;;;19.33;10.77;;;;;;;;;;5054217;28;20233;-82
2022/04/15 05:14:47;;;;;;;21.33;11.00;;;;;;;;;;5059490;28;20282;-82
2022/04/15 05:17:17;;;;;;;20.87;11.20;;;;;;;;;;5060630;28;20203;-82
2022/04/15 05:19:44;;;;;;;24.83;11.90;;;;;;;;;;5056237;28;20206;-82
2022/04/15 05:22:11;;;;;;;21.67;11.50;;;;;;;;;;5057543;28;20233;-82
2022/04/15 05:24:39;;;;;;;20.10;10.03;;;;;;;;;;5055488;28;20222;-83
2022/04/15 05:27:10;;;;;;;15.80;9.40;;;;;;;;;;5057911;28;20209;-83
2022/04/15 05:29:46;;;;;;;14.73;8.50;;;;;;;;;;5059375;28;20223;-83
2022/04/15 05:32:13;;;;;;;18.37;8.10;;;;;;;;;;5050856;28;20223;-82
2022/04/15 05:34:42;;;;;;;11.97;7.73;;;;;;;;;;5055547;28;20274;-82
2022/04/15 05:37:09;;;;;;;12.00;7.20;;;;;;;;;;5057277;28;20218;-82
2022/04/15 05:39:37;;;;;;;10.90;7.40;;;;;;;;;;5054744;28;20221;-82
2022/04/15 05:42:04;;;;;;;11.90;6.80;;;;;;;;;;5057456;28;20758;-83
2022/04/15 05:44:32;;;;;;;14.53;7.80;;;;;;;;;;5057269;28;20686;-81
2022/04/15 05:49:46;;;;;;;11.63;6.97;;;;;;;;;;5062212;28;20202;-82
2022/04/15 05:52:15;;;;;;;10.43;6.73;;;;;;;;;;5054361;28;20622;-82
2022/04/15 05:54:42;;;;;;;12.97;6.73;;;;;;;;;;5048626;28;20204;-83
2022/04/15 05:57:09;;;;;;;17.33;6.80;;;;;;;;;;5057875;28;20607;-82
2022/04/15 05:59:37;;;;;;;9.67;6.23;;;;;;;;;;5055207;28;20493;-82
2022/04/15 06:02:08;;;;;;;10.90;7.00;;;;;;;;;;5054560;28;20230;-82
2022/04/15 06:04:36;;;;;;;13.93;6.77;;;;;;;;;;5056804;28;20305;-82
2022/04/15 06:07:05;;;;;;;10.07;6.50;;;;;;;;;;5057608;28;20203;-82
2022/04/15 06:09:36;;;;;;;12.33;6.47;;;;;;;;;;5048342;28;20286;-82
2022/04/15 06:12:06;;;;;;;9.23;5.97;;;;;;;;;;5055088;28;20301;-83
2022/04/15 06:14:40;;;;;;;10.03;6.57;;;;;;;;;;5061539;28;20217;-82
2022/04/15 06:17:08;;;;;;;12.60;7.00;;;;;;;;;;5054563;28;20207;-83
2022/04/15 06:19:36;;;;;;;9.53;6.87;;;;;;;;;;5061496;28;20205;-82
2022/04/15 06:22:03;;;;;;;11.93;6.90;;;;;;;;;;5054939;28;20230;-82
2022/04/15 06:24:30;;;;;;;10.77;6.30;;;;;;;;;;5059569;28;20226;-82
2022/04/15 06:27:05;;;;;;;13.53;7.40;;;;;;;;;;5055968;28;20599;-82
2022/04/15 06:29:33;;;;;;;10.70;6.73;;;;;;;;;;5057983;28;20280;-82
2022/04/15 06:32:00;;;;;;;11.23;7.07;;;;;;;;;;5052946;28;20214;-82
2022/04/15 06:34:28;;;;;;;10.53;6.60;;;;;;;;;;5056708;28;20205;-82
2022/04/15 06:36:55;;;;;;;12.00;6.90;;;;;;;;;;5058397;28;20220;-82
2022/04/15 06:39:23;;;;;;;12.90;6.77;;;;;;;;;;5052278;28;20210;-82
2022/04/15 06:41:51;;;;;;;10.27;6.80;;;;;;;;;;5052345;28;20496;-82
2022/04/15 06:44:20;;;;;;;12.93;6.67;;;;;;;;;;5058708;28;20221;-81
2022/04/15 06:46:47;;;;;;;11.30;6.90;;;;;;;;;;5061279;28;20198;-82
2022/04/15 06:49:14;;;;;;;10.50;6.70;;;;;;;;;;5054582;28;20210;-82
2022/04/15 06:51:42;;;;;;;14.13;7.00;;;;;;;;;;5055709;28;20214;-82
2022/04/15 06:54:11;;;;;;;15.80;7.57;;;;;;;;;;5049425;28;20206;-82
2022/04/15 06:56:43;;;;;;;12.03;7.47;;;;;;;;;;5056974;28;20213;-82
2022/04/15 06:59:26;;;;;;;11.93;7.30;;;;;;;;;;5056600;28;20219;-82
2022/04/15 07:02:20;;;;;;;11.57;7.23;;;;;;;;;;5045905;28;20270;-82
2022/04/15 07:04:48;;;;;;;17.37;10.10;;;;;;;;;;5051907;28;20224;-82
2022/04/15 07:07:16;;;;;;;25.40;14.17;;;;;;;;;;5055106;28;20203;-81
2022/04/15 07:09:44;;;;;;;23.83;12.97;;;;;;;;;;5059645;28;20229;-81
2022/04/15 07:12:28;;;;;;;24.87;11.80;;;;;;;;;;5056101;28;20223;-81
2022/04/15 07:15:04;;;;;;;23.50;11.60;;;;;;;;;;5054470;28;20223;-81
2022/04/15 07:17:37;;;;;;;19.87;10.73;;;;;;;;;;5051719;28;20210;-82
2022/04/15 07:20:09;;;;;;;16.63;10.43;;;;;;;;;;5052350;28;20272;-82
2022/04/15 07:22:37;;;;;;;17.50;9.87;;;;;;;;;;5055104;28;20286;-83
2022/04/15 07:25:09;;;;;;;17.20;9.70;;;;;;;;;;5049037;28;20682;-80
2022/04/15 07:27:36;;;;;;;19.00;9.77;;;;;;;;;;5055041;28;20213;-83
2022/04/15 07:30:11;;;;;;;19.40;9.93;;;;;;;;;;5065195;28;20289;-83
2022/04/15 07:32:40;;;;;;;16.73;9.93;;;;;;;;;;5056011;28;20225;-83
2022/04/15 07:35:08;;;;;;;15.60;9.90;;;;;;;;;;5055242;28;20199;-83
2022/04/15 07:37:41;;;;;;;17.67;9.70;;;;;;;;;;5052646;28;20207;-83
2022/04/15 07:40:12;;;;;;;17.43;9.23;;;;;;;;;;5054563;28;20207;-82
2022/04/15 07:42:39;;;;;;;17.00;9.00;;;;;;;;;;5054670;28;20248;-83
2022/04/15 07:45:08;;;;;;;12.50;7.07;;;;;;;;;;5061715;28;20328;-83
2022/04/15 07:47:35;;;;;;;12.30;7.07;;;;;;;;;;5055435;28;20202;-83
2022/04/15 07:50:03;;;;;;;15.20;8.00;;;;;;;;;;5053441;28;20199;-83
2022/04/15 07:52:32;;;;;;;12.63;7.50;;;;;;;;;;5056735;28;20699;-83
2022/04/15 07:55:00;;;;;;;19.77;7.87;;;;;;;;;;5062945;28;20223;-83
2022/04/15 07:57:30;;;;;;;13.37;7.07;;;;;;;;;;5055307;28;20238;-82
2022/04/15 08:00:00;;;;;;;12.80;7.37;;;;;;;;;;5052651;28;20222;-82
2022/04/15 08:02:27;;;;;;;13.67;7.17;;;;;;;;;;5058579;28;20262;-82
2022/04/15 08:04:54;;;;;;;12.97;7.50;;;;;;;;;;5056865;28;20227;-82
2022/04/15 08:07:27;;;;;;;10.70;6.50;;;;;;;;;;5058379;28;20199;-83
2022/04/15 08:09:58;;;;;;;15.07;7.33;;;;;;;;;;5058051;28;20780;-82
2022/04/15 08:12:26;;;;;;;16.10;7.97;;;;;;;;;;5053724;28;20229;-82
2022/04/15 08:14:54;;;;;;;16.07;7.73;;;;;;;;;;5060930;28;20215;-82
2022/04/15 08:17:21;;;;;;;15.53;7.23;;;;;;;;;;5061167;28;20425;-82
2022/04/15 08:19:54;;;;;;;17.67;7.33;;;;;;;;;;5052523;28;20214;-83
2022/04/15 08:22:22;;;;;;;17.63;7.83;;;;;;;;;;5057202;28;20222;-83
2022/04/15 08:24:52;;;;;;;15.00;7.43;;;;;;;;;;5059915;28;20337;-83
2022/04/15 08:27:25;;;;;;;11.73;6.10;;;;;;;;;;5057814;28;20207;-82
2022/04/15 08:29:53;;;;;;;13.07;6.27;;;;;;;;;;5068235;28;20285;-81
2022/04/15 08:32:24;;;;;;;12.63;6.47;;;;;;;;;;5064317;28;20222;-82
2022/04/15 08:34:51;;;;;;;9.90;6.03;;;;;;;;;;5067519;28;20594;-82
2022/04/15 08:37:22;;;;;;;11.30;6.20;;;;;;;;;;5056598;28;20678;-81
2022/04/15 08:39:55;;;;;;;14.00;6.13;;;;;;;;;;5053358;28;20641;-83
2022/04/15 08:42:31;;;;;;;15.10;6.40;;;;;;;;;;5060427;28;20300;-83
2022/04/15 08:45:00;;;;;;;11.67;6.47;;;;;;;;;;5057033;28;20226;-82
2022/04/15 08:47:28;;;;;;;13.53;5.87;;;;;;;;;;5065957;28;20203;-82
2022/04/15 08:49:57;;;;;;;13.63;6.33;;;;;;;;;;5053114;28;20258;-82
2022/04/15 08:52:24;;;;;;;11.07;5.77;;;;;;;;;;5061069;28;20229;-82
2022/04/15 08:54:52;;;;;;;10.50;4.67;;;;;;;;;;5058833;28;20281;-83
2022/04/15 08:57:19;;;;;;;10.43;4.63;;;;;;;;;;5049138;28;20235;-83
2022/04/15 08:59:53;;;;;;;7.47;4.43;;;;;;;;;;5050157;28;20205;-83
2022/04/15 09:02:33;;;;;;;12.63;4.50;;;;;;;;;;5061076;28;20623;-82
2022/04/15 09:05:01;;;;;;;8.67;4.30;;;;;;;;;;5066158;28;20234;-82
2022/04/15 09:07:31;;;;;;;8.73;4.30;;;;;;;;;;5068313;28;20617;-83
2022/04/15 09:09:59;;;;;;;10.20;4.73;;;;;;;;;;5060438;28;20214;-82
2022/04/15 09:12:28;;;;;;;7.17;4.17;;;;;;;;;;5134699;22;20241;-77
2022/04/15 09:14:59;;;;;;;8.57;4.10;;;;;;;;;;5058533;28;20294;-77
2022/04/15 09:17:29;;;;;;;7.70;3.83;;;;;;;;;;5063577;28;20265;-77
2022/04/15 09:19:58;;;;;;;6.07;3.53;;;;;;;;;;5065257;28;20280;-78
2022/04/15 09:22:25;;;;;;;11.03;3.87;;;;;;;;;;5059464;28;20266;-78
2022/04/15 09:24:52;;;;;;;8.60;3.80;;;;;;;;;;5059158;28;20223;-76
2022/04/15 09:27:23;;;;;;;6.70;3.83;;;;;;;;;;5058858;28;20294;-78
2022/04/15 09:29:51;;;;;;;8.30;3.63;;;;;;;;;;5056146;28;20234;-78
2022/04/15 09:32:19;;;;;;;6.60;3.20;;;;;;;;;;5058455;28;20721;-81
2022/04/15 09:34:56;;;;;;;9.87;3.67;;;;;;;;;;5055105;28;20250;-80
2022/04/15 09:37:25;;;;;;;7.87;3.27;;;;;;;;;;5048204;28;20649;-80
2022/04/15 09:40:06;;;;;;;8.77;3.90;;;;;;;;;;5053436;28;20325;-81
2022/04/15 09:42:37;;;;;;;7.50;3.40;;;;;;;;;;5056784;28;20205;-78
2022/04/15 09:45:14;;;;;;;7.00;3.57;;;;;;;;;;5062875;28;20222;-79
2022/04/15 09:47:42;;;;;;;10.47;3.77;;;;;;;;;;5058159;28;20206;-78
2022/04/15 09:50:21;;;;;;;9.93;4.20;;;;;;;;;;5062211;28;20570;-79
2022/04/15 09:52:50;;;;;;;7.27;3.47;;;;;;;;;;5062981;28;20264;-79
2022/04/15 09:55:20;;;;;;;7.87;3.90;;;;;;;;;;5062119;28;20628;-78
2022/04/15 09:57:50;;;;;;;8.17;3.63;;;;;;;;;;5062494;28;20203;-78
2022/04/15 10:00:18;;;;;;;9.30;3.87;;;;;;;;;;5053628;28;20243;-78
2022/04/15 10:02:45;;;;;;;6.90;3.43;;;;;;;;;;5058317;28;20673;-79
2022/04/15 10:05:14;;;;;;;9.37;4.00;;;;;;;;;;5056550;28;20298;-80
2022/04/15 10:07:42;;;;;;;8.03;3.77;;;;;;;;;;5055986;28;20683;-80
2022/04/15 10:10:11;;;;;;;10.27;5.03;;;;;;;;;;5060113;28;20286;-78
2022/04/15 10:12:42;;;;;;;10.63;4.87;;;;;;;;;;5071457;28;20338;-78
2022/04/15 10:15:10;;;;;;;11.40;4.67;;;;;;;;;;5062773;28;20198;-77
2022/04/15 10:17:39;;;;;;;7.50;4.23;;;;;;;;;;5061371;28;20207;-78
2022/04/15 10:20:07;;;;;;;10.87;4.33;;;;;;;;;;5056451;28;20226;-77
2022/04/15 10:22:36;;;;;;;8.03;4.20;;;;;;;;;;5039612;28;20244;-79
2022/04/15 10:25:03;;;;;;;11.47;4.90;;;;;;;;;;5050708;28;20582;-78
2022/04/15 10:27:32;;;;;;;9.13;4.57;;;;;;;;;;5044776;28;20657;-78
2022/04/15 10:30:04;;;;;;;9.27;4.57;;;;;;;;;;5052117;28;20233;-78
2022/04/15 10:32:31;;;;;;;9.27;5.10;;;;;;;;;;5061125;28;20658;-77
2022/04/15 10:35:01;;;;;;;9.00;4.80;;;;;;;;;;5056963;28;20230;-79
2022/04/15 10:37:47;;;;;;;10.80;4.73;;;;;;;;;;5053146;28;20263;-79
2022/04/15 10:40:24;;;;;;;9.30;4.20;;;;;;;;;;5055271;28;20226;-78
2022/04/15 10:42:52;;;;;;;8.97;4.63;;;;;;;;;;5047101;28;20206;-78
2022/04/15 10:45:26;;;;;;;9.10;5.03;;;;;;;;;;5052463;28;20228;-79
2022/04/15 10:47:59;;;;;;;11.67;4.93;;;;;;;;;;5052375;28;20225;-78
2022/04/15 10:50:28;;;;;;;7.57;4.20;;;;;;;;;;5052423;28;20296;-78
2022/04/15 10:53:10;;;;;;;9.43;3.67;;;;;;;;;;5055245;28;20214;-78
2022/04/15 10:55:43;;;;;;;12.00;4.50;;;;;;;;;;5056124;28;20249;-77
2022/04/15 10:58:15;;;;;;;7.53;4.00;;;;;;;;;;5041192;28;20217;-78
2022/04/15 11:03:28;;;;;;;8.37;4.20;;;;;;;;;;5039598;28;20715;-78
2022/04/15 11:05:57;;;;;;;9.67;4.30;;;;;;;;;;5049887;28;20228;-81
2022/04/15 11:08:25;;;;;;;7.70;3.53;;;;;;;;;;5050646;28;20207;-78
2022/04/15 11:11:05;;;;;;;7.80;4.40;;;;;;;;;;5051749;28;20226;-79
2022/04/15 11:13:35;;;;;;;9.53;3.97;;;;;;;;;;5054404;28;20222;-81
2022/04/15 11:16:11;;;;;;;8.17;4.57;;;;;;;;;;5059145;28;20506;-79
2022/04/15 11:18:50;;;;;;;7.90;4.47;;;;;;;;;;5061269;28;20290;-77
2022/04/15 11:21:17;;;;;;;7.53;3.87;;;;;;;;;;5055606;28;20299;-79
2022/04/15 11:23:47;;;;;;;8.83;4.20;;;;;;;;;;5045460;28;20222;-78
2022/04/15 11:26:15;;;;;;;8.37;4.07;;;;;;;;;;5057314;28;20218;-80
2022/04/15 11:28:45;;;;;;;9.07;4.40;;;;;;;;;;5057459;28;20198;-78
2022/04/15 11:31:22;;;;;;;8.30;4.00;;;;;;;;;;5061219;28;20248;-78
2022/04/15 11:33:49;;;;;;;8.93;4.47;;;;;;;;;;5048877;28;20191;-79
2022/04/15 11:36:18;;;;;;;7.40;4.37;;;;;;;;;;5053245;28;20213;-80
2022/04/15 11:38:45;;;;;;;7.70;4.30;;;;;;;;;;5051813;28;20198;-80
2022/04/15 11:41:16;;;;;;;7.97;4.27;;;;;;;;;;5048835;28;20235;-79
2022/04/15 11:43:48;;;;;;;9.33;4.60;;;;;;;;;;5060566;28;20202;-78
2022/04/15 11:46:16;;;;;;;6.47;3.43;;;;;;;;;;5049428;28;20650;-77
2022/04/15 11:48:43;;;;;;;7.83;4.27;;;;;;;;;;5036864;28;20290;-80
2022/04/15 11:51:10;;;;;;;6.97;3.70;;;;;;;;;;5052120;28;20222;-78
2022/04/15 11:53:37;;;;;;;7.17;4.00;;;;;;;;;;5055168;28;20302;-78
2022/04/15 11:56:05;;;;;;;7.73;3.83;;;;;;;;;;5043388;28;21588;-80
2022/04/15 11:58:33;;;;;;;9.30;3.83;;;;;;;;;;5055235;28;20356;-77
2022/04/15 12:01:02;;;;;;;7.20;3.47;;;;;;;;;;5053967;28;20222;-78
2022/04/15 12:03:30;;;;;;;7.27;3.93;;;;;;;;;;5050956;28;20266;-78
2022/04/15 12:05:58;;;;;;;7.10;3.53;;;;;;;;;;5052829;28;20569;-79
2022/04/15 12:08:26;;;;;;;7.43;3.67;;;;;;;;;;5064249;28;20209;-79
2022/04/15 12:10:54;;;;;;;6.63;3.13;;;;;;;;;;5064874;28;20343;-80
2022/04/15 12:13:21;;;;;;;6.40;3.57;;;;;;;;;;5057003;28;20213;-81
2022/04/15 12:15:49;;;;;;;5.73;3.20;;;;;;;;;;5076160;28;20218;-78
2022/04/15 12:18:18;;;;;;;5.80;3.07;;;;;;;;;;5057313;28;20230;-80
2022/04/15 12:20:45;;;;;;;8.23;4.07;;;;;;;;;;5066437;28;20223;-80
2022/04/15 12:23:14;;;;;;;5.23;2.97;;;;;;;;;;5058518;28;20239;-81
2022/04/15 12:31:27;;;;;;;5.67;3.07;;;;;;;;;;5056546;28;20217;-80
2022/04/15 12:33:55;;;;;;;5.23;2.93;;;;;;;;;;5066967;28;20290;-78
2022/04/15 12:36:23;;;;;;;6.13;3.53;;;;;;;;;;5054161;28;20190;-80
2022/04/15 12:39:00;;;;;;;5.30;2.97;;;;;;;;;;5065230;28;20663;-81
2022/04/15 12:41:38;;;;;;;5.70;3.10;;;;;;;;;;5067655;28;20241;-80
2022/04/15 12:44:18;;;;;;;6.33;3.10;;;;;;;;;;5065190;28;20212;-80
2022/04/15 12:46:46;;;;;;;4.30;2.50;;;;;;;;;;5058292;28;20321;-80
2022/04/15 12:49:28;;;;;;;6.60;2.87;;;;;;;;;;5065565;28;20289;-80
2022/04/15 12:51:58;;;;;;;4.67;2.60;;;;;;;;;;5066538;28;20234;-80
2022/04/15 12:54:27;;;;;;;5.17;2.13;;;;;;;;;;5069135;28;20235;-81
2022/04/15 12:56:56;;;;;;;4.00;2.50;;;;;;;;;;5068053;28;20211;-80
2022/04/15 12:59:23;;;;;;;5.90;2.47;;;;;;;;;;5073114;28;20202;-81
2022/04/15 13:01:51;;;;;;;3.60;2.43;;;;;;;;;;5057476;28;20241;-81
2022/04/15 13:04:22;;;;;;;3.60;2.40;;;;;;;;;;5067647;28;20233;-80
2022/04/15 13:06:50;;;;;;;5.00;2.40;;;;;;;;;;5064070;28;20223;-80
2022/04/15 13:09:20;;;;;;;4.47;2.20;;;;;;;;;;5056558;28;20217;-81
2022/04/15 13:11:49;;;;;;;5.07;2.07;;;;;;;;;;5067904;28;20249;-81
2022/04/15 13:14:16;;;;;;;2.67;2.00;;;;;;;;;;5063375;28;20272;-80
2022/04/15 13:16:49;;;;;;;2.50;1.90;;;;;;;;;;5049921;28;20665;-80
2022/04/15 13:19:19;;;;;;;3.43;1.93;;;;;;;;;;5058806;28;20198;-83
2022/04/15 13:21:46;;;;;;;3.13;1.93;;;;;;;;;;5046535;28;20219;-80
2022/04/15 13:24:15;;;;;;;3.07;1.77;;;;;;;;;;5061468;28;20218;-81
2022/04/15 13:26:43;;;;;;;2.63;1.90;;;;;;;;;;5054192;28;20692;-81
2022/04/15 13:29:12;;;;;;;4.27;1.90;;;;;;;;;;5052085;28;20294;-81
2022/04/15 13:31:40;;;;;;;2.90;1.60;;;;;;;;;;5041861;28;20242;-80
2022/04/15 13:34:08;;;;;;;4.00;2.10;;;;;;;;;;5058862;28;20285;-81
2022/04/15 13:36:38;;;;;;;4.10;1.90;;;;;;;;;;5056579;28;20195;-80
2022/04/15 13:39:07;;;;;;;4.57;1.80;;;;;;;;;;5060936;28;20656;-81
2022/04/15 13:41:37;;;;;;;2.87;1.90;;;;;;;;;;5064238;28;20360;-80
2022/04/15 13:44:05;;;;;;;2.90;1.63;;;;;;;;;;5062632;28;20211;-80
2022/04/15 13:46:32;;;;;;;2.20;1.73;;;;;;;;;;5065339;28;20753;-80
2022/04/15 13:49:00;;;;;;;4.30;2.13;;;;;;;;;;5056798;28;20214;-80
2022/04/15 13:51:28;;;;;;;1.80;1.43;;;;;;;;;;5062610;28;20230;-81
2022/04/15 13:56:42;;;;;;;2.73;1.90;;;;;;;;;;5053855;28;20202;-80
2022/04/15 13:59:10;;;;;;;2.97;1.60;;;;;;;;;;5059365;28;20211;-81
2022/04/15 14:01:39;;;;;;;2.87;1.87;;;;;;;;;;5062446;28;20749;-81
2022/04/15 14:04:09;;;;;;;4.10;2.13;;;;;;;;;;5057055;28;20256;-80
2022/04/15 14:06:37;;;;;;;3.20;1.90;;;;;;;;;;5064232;28;20278;-81
2022/04/15 14:09:05;;;;;;;2.93;1.90;;;;;;;;;;5069070;28;20207;-79
2022/04/15 14:11:33;;;;;;;3.00;2.00;;;;;;;;;;5056683;28;20346;-81
2022/04/15 14:14:02;;;;;;;3.57;2.30;;;;;;;;;;5054909;28;20222;-79
2022/04/15 14:16:30;;;;;;;3.20;1.97;;;;;;;;;;5073473;28;20206;-80
2022/04/15 14:18:57;;;;;;;3.73;2.27;;;;;;;;;;5062194;28;20245;-80
2022/04/15 14:21:28;;;;;;;2.17;1.10;;;;;;;;;;5066150;28;20254;-80
2022/04/15 14:23:55;;;;;;;2.80;2.00;;;;;;;;;;5053647;28;20203;-79
2022/04/15 14:26:23;;;;;;;2.70;1.90;;;;;;;;;;5060597;28;20230;-80
2022/04/15 14:28:51;;;;;;;3.37;1.70;;;;;;;;;;5059924;28;20214;-81
2022/04/15 14:31:21;;;;;;;3.07;1.63;;;;;;;;;;5053562;28;20302;-79
2022/04/15 14:33:49;;;;;;;3.37;2.10;;;;;;;;;;5058299;28;20274;-81
2022/04/15 14:36:16;;;;;;;3.10;2.20;;;;;;;;;;5052584;28;20203;-80
2022/04/15 14:38:43;;;;;;;4.13;1.90;;;;;;;;;;5054787;28;20199;-80
2022/04/15 14:41:11;;;;;;;2.93;2.10;;;;;;;;;;5048772;28;20223;-80
2022/04/15 14:43:39;;;;;;;3.07;2.00;;;;;;;;;;5055392;28;20207;-79
2022/04/15 14:46:06;;;;;;;3.93;1.70;;;;;;;;;;5057756;28;20229;-78
2022/04/15 14:48:35;;;;;;;3.47;1.70;;;;;;;;;;5060455;28;20213;-80
2022/04/15 14:51:03;;;;;;;2.87;1.57;;;;;;;;;;5062712;28;20273;-79
2022/04/15 14:53:31;;;;;;;4.73;1.83;;;;;;;;;;5058175;28;20213;-79
2022/04/15 14:55:58;;;;;;;2.47;1.73;;;;;;;;;;5070524;28;20294;-80
2022/04/15 14:58:26;;;;;;;5.00;2.83;;;;;;;;;;5068987;28;20203;-79
2022/04/15 15:00:53;;;;;;;4.10;3.40;;;;;;;;;;5076304;28;20281;-80
2022/04/15 15:03:21;;;;;;;5.70;3.40;;;;;;;;;;5068316;28;20195;-80
2022/04/15 15:05:50;;;;;;;6.37;3.40;;;;;;;;;;5062496;28;20282;-80
2022/04/15 15:08:18;;;;;;;5.73;3.20;;;;;;;;;;5060341;28;20203;-80
2022/04/15 15:10:45;;;;;;;9.50;3.63;;;;;;;;;;5062931;28;20215;-81
2022/04/15 15:13:12;;;;;;;7.53;3.50;;;;;;;;;;5050921;28;20215;-80